Newark Heath, OH

5:45 PM EST on December 06, 2016 (GMT -0500)
Aerospace Center | | Change Station

Elev 903 ft 40.02 °N, 82.47 °W | Updated 2 minutes ago

Overcast
Overcast
42.4 °F
Feels Like 42 °F
N
1.0
Wind Variable Wind from WSW
Gusts 2.0 mph

Today
High -- | Low -- °F
--% Chance of Precip.
Yesterday
High -- | Low -- °F
Precip. -- in
Pressure 29.69 in
Visibility 4.0 miles
Clouds Overcast 800 ft
Windchill 42 °F
Dew Point 41 °F
Humidity 95%
Rainfall 0.36 in
Snow Depth Not available.
7:37 AM 5:04 PM
Waxing Crescent, 46% visible
SPECI KVTA 062219Z AUTO 29003KT 4SM BR OVC008 06/05 A2969 RMK AO2 T00560050
Pressure 29.69 in
Visibility 4.0 miles
Clouds Overcast 800 ft
Windchill 42 °F
Dew Point 41 °F
Humidity 95%
Rainfall 0.36 in
Snow Depth Not available.
7:37 AM 5:04 PM
Waxing Crescent, 46% visible
SPECI KVTA 062219Z AUTO 29003KT 4SM BR OVC008 06/05 A2969 RMK AO2 T00560050

10-Day Weather Forecast

Almanac

Astronomy

Dec. 06, 2016 Rise Set
Actual Time
Civil Twilight
Nautical Twilight
Astronomical Twilight
Moon
Length of Visible Light
Length of Day
Tomorrow will be .
, % of the Moon is Illuminated

Today's Extremes

State Highs State Lows

Community

WunderPhotos

Upload Photos

1,956,042 photos uploaded!

WunderBlog® & News

Nearby

Air Quality

  Air Quality AQ Index Pollutant
Not available.

Snow Depth

Station Depth Elevation

Earthquake Activity

City Distance Mag. Time & Date
Minimum magnitude displayed is 2.5.

Coastal Water Temperatures

Place Temperature

Stations

Nearby Weather Stations

Station Location Temp. Windchill Dew Point Humidity Wind Precip. Elev Updated Type
                   

Watches & Warnings

There are currently no watches in effect.